« Back
NWS Peachtree City, Ga » Text Product » ATL Terminal Aerodrome Forecast


Printer-friendly Version
Current Version              Previous Versions:   1  2  3  4  5  6  7  8  9  

Terminal Aerodrome Forecast

585
FTUS42 KFFC 030745 AAA
TAFATL
TAF AMD
KATL 030745Z 0308/0412 32005KT P6SM SCT070 BKN200
     FM031500 32005KT P6SM SCT030 SCT070 BKN180
     FM031800 31007KT P6SM BKN050 PROB30 0319/0323 -SHRA
     FM040000 30004KT P6SM SCT060 SCT150=



USA.gov is the U.S. government's official web portal to all federal, state and local government web resources and services.